CFG2EP LTAI-EDDF
Flight info
| Callsign | CFG2EP |
|---|---|
| Flight time | N/A |
| Altitude | 34000 |
| Route | EKNUD1F/36R EKNUD UQ26 DIGBO UL615 VADEN DCT UTEKA/N0447F360 DCT BABIT DCT GOTAR DCT ABRUK DCT SIMBA DCT AKINI T161 DEBHI DEBHI1B |
| Aircraft | A320/M-SDE3FGHIRWY/LB1 |
Departure
| Time | 2026-05-04 13:03 |
|---|---|
| Airport | Antalya International Airport (LTAI) |
Arrival
| Time | N/A |
|---|---|
| Airport | Frankfurt Main Airport (EDDF) |
| Time | Latitude | Longitude | Altitude | Speed | Heading |
|---|---|---|---|---|---|
| 2026-05-04 12:51 | 36.89746 | 30.80224 | 171 ft | 0 kts | 289° |
| 2026-05-04 12:54 | 36.89742 | 30.80239 | 192 ft | 3 kts | 289° |
| 2026-05-04 12:55 | 36.89736 | 30.80260 | 192 ft | 3 kts | 289° |
| 2026-05-04 12:55 | 36.89731 | 30.80281 | 204 ft | 3 kts | 285° |
| 2026-05-04 12:55 | 36.89728 | 30.80300 | 204 ft | 3 kts | 259° |
| 2026-05-04 12:55 | 36.89734 | 30.80321 | 202 ft | 2 kts | 223° |
| 2026-05-04 12:56 | 36.89747 | 30.80332 | 207 ft | 3 kts | 192° |
| 2026-05-04 12:56 | 36.89753 | 30.80334 | 206 ft | 0 kts | 178° |
| 2026-05-04 12:56 | 36.89752 | 30.80334 | 207 ft | 1 kts | 178° |
| 2026-05-04 12:57 | 36.89734 | 30.80328 | 205 ft | 6 kts | 193° |
| 2026-05-04 12:57 | 36.89670 | 30.80310 | 195 ft | 13 kts | 188° |
| 2026-05-04 12:57 | 36.89596 | 30.80338 | 195 ft | 11 kts | 121° |
| 2026-05-04 12:57 | 36.89581 | 30.80434 | 196 ft | 12 kts | 99° |
| 2026-05-04 12:58 | 36.89571 | 30.80530 | 192 ft | 10 kts | 95° |
| 2026-05-04 12:58 | 36.89563 | 30.80613 | 199 ft | 10 kts | 99° |
| 2026-05-04 12:58 | 36.89501 | 30.80682 | 205 ft | 19 kts | 175° |
| 2026-05-04 12:58 | 36.89332 | 30.80660 | 191 ft | 30 kts | 186° |
| 2026-05-04 12:59 | 36.89093 | 30.80624 | 192 ft | 39 kts | 188° |
| 2026-05-04 12:59 | 36.88817 | 30.80585 | 205 ft | 40 kts | 186° |
| 2026-05-04 12:59 | 36.88542 | 30.80545 | 192 ft | 39 kts | 186° |
| 2026-05-04 12:59 | 36.88284 | 30.80512 | 192 ft | 36 kts | 186° |
| 2026-05-04 13:00 | 36.88149 | 30.80553 | 192 ft | 8 kts | 92° |
| 2026-05-04 13:00 | 36.88149 | 30.80558 | 191 ft | 1 kts | 91° |
| 2026-05-04 13:00 | 36.88145 | 30.80579 | 191 ft | 4 kts | 104° |
| 2026-05-04 13:00 | 36.88135 | 30.80623 | 199 ft | 7 kts | 106° |
| 2026-05-04 13:01 | 36.88126 | 30.80694 | 189 ft | 9 kts | 86° |
| 2026-05-04 13:01 | 36.88162 | 30.80734 | 190 ft | 6 kts | 14° |
| 2026-05-04 13:01 | 36.88169 | 30.80735 | 194 ft | 0 kts | 8° |
| 2026-05-04 13:02 | 36.88200 | 30.80740 | 190 ft | 23 kts | 7° |
| 2026-05-04 13:02 | 36.88597 | 30.80792 | 195 ft | 89 kts | 7° |
| 2026-05-04 13:02 | 36.89389 | 30.80901 | 194 ft | 138 kts | 7° |
| 2026-05-04 13:02 | 36.90480 | 30.81041 | 225 ft | 175 kts | 9° |
| 2026-05-04 13:03 | 36.91714 | 30.81246 | 638 ft | 183 kts | 9° |
| 2026-05-04 13:03 | 36.93025 | 30.81437 | 1207 ft | 191 kts | 1° |
| 2026-05-04 13:03 | 36.94317 | 30.81601 | 1980 ft | 190 kts | 2° |
| 2026-05-04 13:03 | 36.96001 | 30.81815 | 2466 ft | 213 kts | 2° |
| 2026-05-04 13:04 | 36.99020 | 30.82221 | 3746 ft | 221 kts | 3° |
| 2026-05-04 13:04 | 37.02100 | 30.82648 | 5204 ft | 227 kts | 4° |
| 2026-05-04 13:04 | 37.05264 | 30.83086 | 7137 ft | 230 kts | 5° |
| 2026-05-04 13:04 | 37.08495 | 30.83448 | 8349 ft | 241 kts | 354° |
| 2026-05-04 13:05 | 37.11214 | 30.80860 | 9200 ft | 272 kts | 294° |
| 2026-05-04 13:05 | 37.11411 | 30.76013 | 10488 ft | 282 kts | 281° |
| 2026-05-04 13:05 | 37.12795 | 30.71432 | 11349 ft | 297 kts | 300° |
| 2026-05-04 13:05 | 37.14865 | 30.66517 | 11625 ft | 341 kts | 301° |
| 2026-05-04 13:06 | 37.18983 | 30.56798 | 13154 ft | 370 kts | 300° |
| 2026-05-04 13:06 | 37.21248 | 30.44202 | 15472 ft | 384 kts | 276° |
| 2026-05-04 13:06 | 37.21825 | 30.30696 | 17552 ft | 391 kts | 277° |
| 2026-05-04 13:06 | 37.22360 | 30.16886 | 19160 ft | 401 kts | 276° |
| 2026-05-04 13:07 | 37.21290 | 30.02828 | 20466 ft | 426 kts | 249° |
| 2026-05-04 13:07 | 37.14531 | 29.90369 | 21708 ft | 429 kts | 257° |
| 2026-05-04 13:07 | 37.14581 | 29.75774 | 22791 ft | 422 kts | 288° |
| 2026-05-04 13:07 | 37.17634 | 29.61418 | 23778 ft | 431 kts | 288° |
| 2026-05-04 13:08 | 37.20687 | 29.46761 | 24598 ft | 438 kts | 287° |
| 2026-05-04 13:08 | 37.23798 | 29.31814 | 25318 ft | 445 kts | 287° |
| 2026-05-04 13:08 | 37.26908 | 29.16692 | 25936 ft | 451 kts | 287° |
| 2026-05-04 13:08 | 37.30027 | 29.01385 | 26702 ft | 453 kts | 287° |
| 2026-05-04 13:09 | 37.33147 | 28.86041 | 27480 ft | 454 kts | 287° |
| 2026-05-04 13:09 | 37.37020 | 28.71019 | 28310 ft | 448 kts | 304° |
| 2026-05-04 13:09 | 37.44285 | 28.58325 | 29151 ft | 448 kts | 308° |
| 2026-05-04 13:09 | 37.51510 | 28.45502 | 30025 ft | 449 kts | 308° |
| 2026-05-04 13:10 | 37.58766 | 28.32691 | 30830 ft | 448 kts | 308° |
| 2026-05-04 13:10 | 37.65956 | 28.19925 | 31649 ft | 446 kts | 308° |
| 2026-05-04 13:10 | 37.73103 | 28.07164 | 32493 ft | 444 kts | 308° |
| 2026-05-04 13:10 | 37.75551 | 28.02961 | 32593 ft | 441 kts | 322° |
| 2026-05-04 13:11 | 37.77955 | 28.00697 | 33086 ft | 421 kts | 320° |
| 2026-05-04 13:11 | 37.79861 | 27.97968 | 33760 ft | 414 kts | 306° |
| 2026-05-04 13:11 | 37.82525 | 27.91771 | 34030 ft | 421 kts | 298° |
| 2026-05-04 13:11 | 37.86394 | 27.82934 | 34045 ft | 432 kts | 305° |
| 2026-05-04 13:12 | 37.93502 | 27.70425 | 34033 ft | 440 kts | 308° |
| 2026-05-04 13:12 | 38.07636 | 27.44895 | 34017 ft | 447 kts | 307° |
| 2026-05-04 13:13 | 38.21726 | 27.19167 | 33938 ft | 448 kts | 307° |
| 2026-05-04 13:13 | 38.37112 | 26.94794 | 33929 ft | 445 kts | 322° |
| 2026-05-04 13:13 | 38.46460 | 26.84479 | 33786 ft | 445 kts | 321° |
| 2026-05-04 13:14 | 38.55778 | 26.74141 | 33945 ft | 444 kts | 321° |
| 2026-05-04 13:14 | 38.62862 | 26.66252 | 33844 ft | 448 kts | 321° |
| 2026-05-04 13:14 | 38.68899 | 26.59516 | 34052 ft | 451 kts | 321° |
| 2026-05-04 13:14 | 38.78294 | 26.49016 | 33837 ft | 454 kts | 321° |
| 2026-05-04 13:15 | 38.87196 | 26.37833 | 34014 ft | 454 kts | 314° |
| 2026-05-04 13:15 | 39.03550 | 26.14262 | 33969 ft | 451 kts | 313° |
| 2026-05-04 13:16 | 39.12788 | 26.00656 | 34079 ft | 458 kts | 314° |
| 2026-05-04 13:16 | 39.23052 | 25.85701 | 34084 ft | 458 kts | 313° |
| 2026-05-04 13:17 | 39.39896 | 25.60929 | 34072 ft | 459 kts | 313° |
| 2026-05-04 13:17 | 39.56626 | 25.36115 | 34075 ft | 461 kts | 313° |
| 2026-05-04 13:18 | 39.73450 | 25.10972 | 34098 ft | 462 kts | 313° |
| 2026-05-04 13:18 | 39.90243 | 24.85681 | 34096 ft | 462 kts | 312° |
| 2026-05-04 13:19 | 40.06990 | 24.60242 | 34081 ft | 462 kts | 312° |
| 2026-05-04 13:19 | 40.23696 | 24.34661 | 34091 ft | 462 kts | 312° |
| 2026-05-04 13:20 | 40.40305 | 24.09004 | 34108 ft | 460 kts | 311° |